createdAt,value
2022-10-05T00:00:30.354Z,10.63
2022-10-05T00:02:57.413Z,10.97
2022-10-05T00:05:29.399Z,11.37
2022-10-05T00:08:04.594Z,10.67
2022-10-05T00:10:31.625Z,11.13
2022-10-05T00:12:58.446Z,10.43
2022-10-05T00:15:25.423Z,10.43
2022-10-05T00:17:52.695Z,11.40
2022-10-05T00:20:26.883Z,11.00
2022-10-05T00:22:58.728Z,10.70
2022-10-05T00:25:25.813Z,11.23
2022-10-05T00:27:58.954Z,10.20
2022-10-05T00:30:31.007Z,11.17
2022-10-05T00:32:59.765Z,9.57
2022-10-05T00:35:29.537Z,12.00
2022-10-05T00:37:56.779Z,10.70
2022-10-05T00:40:51.156Z,11.17
2022-10-05T00:44:08.504Z,10.23
2022-10-05T00:46:52.257Z,11.03
2022-10-05T00:49:56.578Z,11.07
2022-10-05T00:52:50.893Z,10.60
2022-10-05T00:55:41.399Z,10.70
2022-10-05T00:58:11.126Z,11.52
2022-10-05T01:01:05.083Z,11.70
2022-10-05T01:03:55.236Z,11.47
2022-10-05T01:06:48.392Z,11.50
2022-10-05T01:09:35.187Z,10.50
2022-10-05T01:12:37.090Z,11.47
2022-10-05T01:15:19.615Z,11.43
2022-10-05T01:18:05.629Z,10.83
2022-10-05T01:20:51.845Z,11.67
2022-10-05T01:23:27.910Z,11.47
2022-10-05T01:26:28.778Z,11.67
2022-10-05T01:29:03.332Z,11.40
2022-10-05T01:31:40.687Z,11.33
2022-10-05T01:34:37.509Z,12.23
2022-10-05T01:37:13.632Z,11.70
2022-10-05T01:39:48.148Z,12.43
2022-10-05T01:42:41.536Z,12.73
2022-10-05T01:45:20.605Z,12.63
2022-10-05T01:48:01.118Z,13.07
2022-10-05T01:50:52.525Z,12.57
2022-10-05T01:53:46.687Z,13.23
2022-10-05T01:56:42.660Z,13.37
2022-10-05T01:59:21.278Z,12.87
2022-10-05T02:02:09.674Z,13.67
2022-10-05T02:05:06.462Z,13.47
2022-10-05T02:07:42.948Z,14.20
2022-10-05T02:10:59.491Z,13.43
2022-10-05T02:13:33.983Z,14.10
2022-10-05T02:16:17.068Z,14.13
2022-10-05T02:18:56.636Z,14.10
2022-10-05T02:21:24.689Z,13.67
2022-10-05T02:23:57.058Z,13.27
2022-10-05T02:26:26.490Z,14.50
2022-10-05T02:29:00.025Z,13.50
2022-10-05T02:31:39.425Z,13.37
2022-10-05T02:34:27.017Z,14.50
2022-10-05T02:37:12.450Z,13.47
2022-10-05T02:39:55.002Z,14.10
2022-10-05T02:42:31.142Z,14.40
2022-10-05T02:45:18.333Z,15.13
2022-10-05T02:48:03.932Z,14.30
2022-10-05T02:50:40.204Z,14.03
2022-10-05T02:53:15.210Z,14.03
2022-10-05T02:56:21.999Z,13.17
2022-10-05T02:59:11.660Z,13.33
2022-10-05T03:02:13.535Z,14.57
2022-10-05T03:05:02.038Z,13.57
2022-10-05T03:08:07.588Z,14.17
2022-10-05T03:10:34.365Z,13.33
2022-10-05T03:13:28.332Z,13.43
2022-10-05T03:16:10.471Z,13.57
2022-10-05T03:18:52.259Z,13.17
2022-10-05T03:21:34.087Z,12.37
2022-10-05T03:24:06.779Z,13.53
2022-10-05T03:26:43.787Z,13.17
2022-10-05T03:29:10.987Z,12.23
2022-10-05T03:31:46.782Z,12.47
2022-10-05T03:34:28.291Z,13.23
2022-10-05T03:37:23.146Z,12.70
2022-10-05T03:40:19.865Z,13.10
2022-10-05T03:42:59.160Z,13.57
2022-10-05T03:45:48.454Z,12.37
2022-10-05T03:48:28.493Z,12.17
2022-10-05T03:51:01.822Z,13.27
2022-10-05T03:53:44.279Z,13.17
2022-10-05T03:56:25.741Z,13.00
2022-10-05T03:59:08.355Z,12.90
2022-10-05T04:01:48.948Z,12.73
2022-10-05T04:04:39.868Z,12.70
2022-10-05T04:07:26.072Z,12.90
2022-10-05T04:09:54.873Z,13.53
2022-10-05T04:12:33.894Z,13.10
2022-10-05T04:15:21.565Z,14.20
2022-10-05T04:17:56.352Z,13.47
2022-10-05T04:20:36.076Z,12.97
2022-10-05T04:23:15.136Z,13.40
2022-10-05T04:25:53.055Z,13.53
2022-10-05T04:28:31.936Z,13.90
2022-10-05T04:31:03.816Z,14.83
2022-10-05T04:33:32.235Z,13.00
2022-10-05T04:36:36.434Z,13.73
2022-10-05T04:39:23.805Z,13.03
2022-10-05T04:41:50.893Z,13.80
2022-10-05T04:44:35.951Z,14.10
2022-10-05T04:47:15.198Z,14.03
2022-10-05T04:49:44.935Z,14.13
2022-10-05T04:52:32.943Z,13.70
2022-10-05T04:55:14.428Z,14.17
2022-10-05T04:57:54.820Z,13.67
2022-10-05T05:01:07.852Z,13.77
2022-10-05T05:03:37.871Z,13.57
2022-10-05T05:06:22.616Z,13.17
2022-10-05T05:09:13.727Z,13.93
2022-10-05T05:12:15.921Z,14.30
2022-10-05T05:15:07.431Z,13.67
2022-10-05T05:18:03.356Z,13.20
2022-10-05T05:20:49.049Z,13.63
2022-10-05T05:23:46.635Z,13.60
2022-10-05T05:26:22.428Z,13.27
2022-10-05T05:29:05.743Z,13.70
2022-10-05T05:31:41.696Z,14.03
2022-10-05T05:34:45.710Z,13.83
2022-10-05T05:37:21.667Z,13.80
2022-10-05T05:40:07.185Z,13.57
2022-10-05T05:42:37.592Z,13.97
2022-10-05T05:45:16.727Z,14.23
2022-10-05T05:47:53.944Z,14.27
2022-10-05T05:50:48.456Z,13.50
2022-10-05T05:53:21.285Z,13.77
2022-10-05T05:55:54.057Z,13.63
2022-10-05T05:58:29.490Z,13.80
2022-10-05T06:01:02.037Z,14.60
2022-10-05T06:03:41.059Z,13.97
2022-10-05T06:06:14.436Z,14.27
2022-10-05T06:09:06.856Z,14.13
2022-10-05T06:11:43.186Z,13.07
2022-10-05T06:14:30.306Z,12.77
2022-10-05T06:17:17.206Z,14.33
2022-10-05T06:19:48.454Z,14.03
2022-10-05T06:22:19.297Z,12.77
2022-10-05T06:25:12.217Z,13.63
2022-10-05T06:28:11.923Z,13.00
2022-10-05T06:30:49.485Z,12.50
2022-10-05T06:33:38.012Z,12.47
2022-10-05T09:53:12.214Z,3.30
2022-10-05T09:56:14.049Z,2.40
2022-10-05T09:59:11.261Z,2.70
2022-10-05T10:02:20.627Z,2.80
2022-10-05T10:05:08.978Z,3.23
2022-10-05T10:07:49.007Z,3.00
2022-10-05T10:10:15.769Z,3.00
2022-10-05T10:13:04.574Z,2.77
2022-10-05T10:15:50.069Z,2.90
2022-10-05T10:18:49.905Z,2.90
2022-10-05T10:21:45.032Z,2.47
2022-10-05T10:24:15.267Z,2.70
2022-10-05T10:27:06.746Z,2.80
2022-10-05T10:29:42.598Z,3.10
2022-10-05T10:32:28.030Z,3.33
2022-10-05T10:35:25.564Z,3.43
2022-10-05T10:38:30.395Z,2.90
2022-10-05T10:41:48.516Z,3.53
2022-10-05T10:44:37.632Z,3.10
2022-10-05T10:47:25.074Z,3.47
2022-10-05T10:50:01.235Z,3.30
2022-10-05T10:52:50.574Z,3.30
2022-10-05T10:55:30.256Z,3.23
2022-10-05T10:58:10.213Z,3.27
2022-10-05T11:00:50.187Z,4.10
2022-10-05T11:03:47.010Z,3.77
2022-10-05T11:06:23.218Z,3.50
2022-10-05T11:09:22.832Z,3.77
2022-10-05T11:12:24.904Z,3.73
2022-10-05T11:18:11.157Z,3.70
2022-10-05T11:21:06.692Z,3.57
2022-10-05T11:24:15.482Z,3.60
2022-10-05T11:27:28.860Z,3.90
2022-10-05T11:30:10.998Z,3.07
2022-10-05T11:32:57.784Z,4.00
2022-10-05T11:35:49.610Z,3.27
2022-10-05T11:38:35.243Z,3.37
2022-10-05T11:41:50.418Z,3.27
2022-10-05T11:44:43.135Z,4.43
2022-10-05T11:47:56.276Z,3.30
2022-10-05T11:50:30.665Z,3.30
2022-10-05T11:53:23.041Z,3.23
2022-10-05T11:56:19.205Z,3.40
2022-10-05T11:59:02.282Z,3.73
2022-10-05T12:01:56.266Z,3.40
2022-10-05T12:04:37.085Z,3.73
2022-10-05T12:07:17.821Z,3.30
2022-10-05T12:10:18.459Z,3.10
2022-10-05T12:12:52.771Z,2.90
2022-10-05T12:15:50.288Z,2.27
2022-10-05T12:18:26.933Z,2.83
2022-10-05T12:21:04.910Z,2.87
2022-10-05T12:23:52.333Z,3.10
2022-10-05T12:26:29.170Z,2.90
2022-10-05T12:29:11.979Z,3.37
2022-10-05T12:31:51.216Z,2.67
2022-10-05T12:34:28.949Z,3.20
2022-10-05T13:13:47.775Z,2.50
2022-10-05T13:16:19.520Z,2.27
2022-10-05T13:22:30.060Z,2.30
2022-10-05T13:25:45.132Z,2.63
2022-10-05T13:28:18.258Z,2.30
2022-10-05T15:11:18.321Z,2.90
2022-10-05T15:13:49.972Z,2.90
2022-10-05T15:19:36.715Z,2.60
2022-10-05T15:22:26.538Z,2.60
2022-10-05T15:25:14.406Z,3.40
2022-10-05T15:28:08.448Z,2.63
2022-10-05T19:57:20.969Z,1.90
2022-10-05T19:59:48.424Z,2.30
2022-10-05T20:43:51.304Z,2.53
2022-10-05T20:46:18.162Z,2.47
2022-10-05T20:48:45.875Z,2.27
2022-10-05T20:51:12.782Z,2.43
2022-10-05T20:53:39.602Z,2.20
2022-10-05T20:56:06.497Z,2.40
2022-10-05T20:58:35.994Z,2.30
2022-10-05T21:01:23.593Z,2.27
2022-10-05T21:03:53.248Z,2.47
2022-10-05T21:06:30.173Z,2.30
2022-10-05T21:08:57.270Z,2.40
2022-10-05T21:11:24.406Z,2.10
2022-10-05T21:13:53.434Z,2.07
2022-10-05T21:16:20.927Z,2.20
2022-10-05T21:18:49.166Z,2.27
2022-10-05T21:21:17.432Z,2.37
2022-10-05T21:23:46.003Z,2.50
2022-10-05T21:26:14.024Z,2.33
2022-10-05T21:28:41.793Z,2.50
2022-10-05T21:31:09.725Z,2.77
2022-10-05T21:33:36.850Z,2.73
2022-10-05T21:36:04.353Z,2.20
2022-10-05T21:38:31.849Z,2.57
2022-10-05T21:41:11.645Z,2.53
2022-10-05T21:43:39.697Z,2.30
2022-10-05T21:46:09.237Z,2.60
2022-10-05T21:48:40.053Z,2.13
2022-10-05T21:51:16.706Z,2.70
2022-10-05T21:56:38.760Z,1.70
2022-10-05T21:59:09.574Z,1.17
2022-10-05T22:01:37.056Z,1.10
2022-10-05T22:04:06.419Z,0.90
2022-10-05T22:09:06.197Z,0.90
2022-10-05T22:11:33.887Z,0.77
2022-10-05T22:14:03.962Z,0.90
2022-10-05T22:16:35.437Z,1.10
2022-10-05T22:19:10.730Z,0.80
2022-10-05T22:21:42.257Z,1.00
2022-10-05T22:24:14.005Z,1.10
2022-10-05T22:29:28.092Z,0.83
2022-10-05T22:32:00.449Z,1.00
2022-10-05T22:37:14.153Z,1.10
2022-10-05T22:39:49.724Z,1.10
2022-10-05T22:42:17.052Z,1.13
2022-10-05T22:44:45.342Z,1.20
2022-10-05T22:47:18.875Z,1.17
2022-10-05T22:49:47.442Z,1.23
2022-10-05T22:52:14.745Z,1.10
2022-10-05T22:54:41.875Z,1.00
2022-10-05T22:57:09.018Z,1.20
2022-10-05T22:59:36.138Z,1.17
2022-10-05T23:02:03.402Z,0.80
2022-10-05T23:07:13.001Z,1.20
2022-10-05T23:09:40.266Z,1.10
2022-10-05T23:12:08.233Z,1.10
2022-10-05T23:14:35.554Z,1.03
2022-10-05T23:17:02.732Z,1.20
2022-10-05T23:19:40.846Z,1.10
2022-10-05T23:22:08.705Z,1.37
2022-10-05T23:24:36.031Z,1.27
2022-10-05T23:27:03.321Z,1.07
2022-10-05T23:29:30.844Z,1.10
2022-10-05T23:31:58.021Z,1.10
2022-10-05T23:34:27.706Z,1.30
2022-10-05T23:36:54.713Z,1.00
2022-10-05T23:39:21.985Z,1.07
2022-10-05T23:41:49.424Z,1.40
2022-10-05T23:44:21.537Z,1.53
2022-10-05T23:46:48.619Z,1.17
2022-10-05T23:49:18.636Z,1.27
2022-10-05T23:51:45.841Z,1.00
2022-10-05T23:54:13.689Z,1.00
2022-10-05T23:56:41.003Z,1.10
2022-10-05T23:59:08.238Z,1.33
